createdAt,value
2023-07-30T00:00:11.587Z,1.30
2023-07-30T00:02:45.423Z,1.80
2023-07-30T00:05:16.331Z,1.63
2023-07-30T00:07:47.402Z,1.75
2023-07-30T00:10:18.594Z,1.48
2023-07-30T00:12:49.486Z,2.05
2023-07-30T00:15:23.151Z,1.33
2023-07-30T00:17:54.048Z,1.73
2023-07-30T00:20:27.486Z,1.30
2023-07-30T00:22:58.906Z,1.48
2023-07-30T00:25:29.743Z,1.50
2023-07-30T00:28:00.626Z,1.33
2023-07-30T00:30:34.094Z,1.85
2023-07-30T00:33:05.069Z,1.85
2023-07-30T00:35:35.864Z,1.35
2023-07-30T00:38:06.714Z,1.80
2023-07-30T00:40:37.657Z,1.48
2023-07-30T00:43:08.620Z,2.03
2023-07-30T00:45:44.932Z,1.58
2023-07-30T00:48:17.513Z,1.55
2023-07-30T00:50:48.712Z,1.70
2023-07-30T00:53:22.410Z,2.05
2023-07-30T00:55:53.299Z,1.40
2023-07-30T00:58:25.852Z,1.90
2023-07-30T01:01:00.574Z,1.33
2023-07-30T01:03:31.540Z,1.67
2023-07-30T01:06:03.520Z,1.50
2023-07-30T01:08:34.834Z,1.50
2023-07-30T01:11:07.169Z,1.77
2023-07-30T01:13:39.500Z,1.70
2023-07-30T01:16:13.041Z,1.50
2023-07-30T01:18:44.053Z,1.55
2023-07-30T01:21:17.573Z,1.33
2023-07-30T01:23:48.585Z,1.60
2023-07-30T01:26:28.323Z,1.55
2023-07-30T01:29:02.492Z,1.50
2023-07-30T01:31:36.769Z,1.80
2023-07-30T01:34:08.897Z,1.40
2023-07-30T01:36:43.119Z,1.33
2023-07-30T01:39:14.991Z,1.58
2023-07-30T01:41:45.795Z,1.98
2023-07-30T01:44:16.803Z,1.42
2023-07-30T01:46:47.600Z,1.83
2023-07-30T01:49:18.558Z,1.65
2023-07-30T01:51:52.291Z,1.63
2023-07-30T01:54:23.153Z,1.48
2023-07-30T01:56:54.143Z,1.73
2023-07-30T01:59:24.968Z,1.15
2023-07-30T02:01:55.880Z,1.50
2023-07-30T02:04:26.825Z,1.60
2023-07-30T02:07:00.413Z,1.42
2023-07-30T02:09:31.658Z,1.30
2023-07-30T02:12:04.486Z,1.50
2023-07-30T02:14:35.514Z,2.10
2023-07-30T02:17:07.121Z,2.05
2023-07-30T02:19:37.979Z,1.88
2023-07-30T02:22:11.607Z,2.00
2023-07-30T02:24:42.522Z,1.98
2023-07-30T02:27:13.413Z,1.92
2023-07-30T02:29:44.662Z,1.95
2023-07-30T02:32:15.790Z,1.90
2023-07-30T02:34:46.725Z,2.00
2023-07-30T02:37:20.307Z,1.95
2023-07-30T02:39:51.180Z,2.55
2023-07-30T02:42:22.039Z,2.28
2023-07-30T02:44:52.904Z,2.33
2023-07-30T02:47:23.816Z,1.48
2023-07-30T02:49:55.476Z,1.88
2023-07-30T02:52:28.948Z,2.28
2023-07-30T02:54:59.876Z,2.40
2023-07-30T02:57:30.774Z,2.30
2023-07-30T03:00:01.596Z,2.30
2023-07-30T03:02:32.855Z,2.40
2023-07-30T03:05:04.103Z,2.58
2023-07-30T03:07:38.758Z,2.55
2023-07-30T03:10:10.642Z,2.47
2023-07-30T03:12:41.528Z,2.55
2023-07-30T03:15:13.517Z,2.10
2023-07-30T03:17:44.589Z,2.28
2023-07-30T03:20:15.841Z,2.38
2023-07-30T03:22:49.238Z,2.20
2023-07-30T03:25:21.264Z,1.90
2023-07-30T03:27:53.512Z,2.72
2023-07-30T03:30:24.401Z,2.33
2023-07-30T03:32:55.232Z,2.25
2023-07-30T03:35:26.255Z,3.25
2023-07-30T03:37:59.893Z,2.38
2023-07-30T03:40:30.944Z,2.78
2023-07-30T03:43:02.215Z,2.08
2023-07-30T03:45:34.461Z,3.67
2023-07-30T03:48:05.400Z,2.45
2023-07-30T03:50:36.415Z,2.75
2023-07-30T03:53:10.089Z,2.65
2023-07-30T03:55:41.127Z,2.15
2023-07-30T03:58:12.263Z,1.98
2023-07-30T04:00:43.499Z,2.30
2023-07-30T04:03:14.623Z,2.63
2023-07-30T04:05:45.601Z,2.30
2023-07-30T04:08:20.795Z,1.98
2023-07-30T04:10:51.747Z,3.40
2023-07-30T04:13:22.676Z,1.90
2023-07-30T04:15:53.596Z,2.95
2023-07-30T04:18:24.608Z,2.10
2023-07-30T04:20:58.219Z,2.08
2023-07-30T04:23:32.034Z,2.38
2023-07-30T04:26:02.876Z,2.80
2023-07-30T04:28:33.868Z,2.40
2023-07-30T04:31:05.026Z,2.20
2023-07-30T04:33:36.367Z,2.42
2023-07-30T04:36:09.237Z,2.03
2023-07-30T04:38:42.932Z,2.95
2023-07-30T04:41:13.946Z,2.45
2023-07-30T04:43:49.791Z,2.38
2023-07-30T04:46:21.409Z,2.42
2023-07-30T04:48:52.478Z,3.25
2023-07-30T04:51:24.510Z,2.58
2023-07-30T04:53:57.979Z,2.53
2023-07-30T04:56:28.947Z,2.10
2023-07-30T04:58:59.875Z,3.17
2023-07-30T05:01:30.798Z,2.00
2023-07-30T05:04:01.832Z,3.08
2023-07-30T05:06:32.815Z,2.25
2023-07-30T05:09:06.695Z,2.38
2023-07-30T05:11:37.806Z,2.85
2023-07-30T05:14:09.134Z,2.70
2023-07-30T05:16:40.345Z,2.35
2023-07-30T05:19:11.183Z,2.33
2023-07-30T05:21:42.183Z,2.20
2023-07-30T05:24:15.701Z,2.83
2023-07-30T05:26:46.579Z,3.20
2023-07-30T05:29:17.468Z,3.22
2023-07-30T05:31:48.352Z,2.75
2023-07-30T05:34:19.174Z,2.72
2023-07-30T05:36:50.074Z,2.03
2023-07-30T05:39:23.634Z,2.78
2023-07-30T05:41:54.545Z,2.78
2023-07-30T05:44:25.366Z,2.33
2023-07-30T05:46:56.294Z,3.03
2023-07-30T05:49:27.253Z,2.17
2023-07-30T05:51:58.362Z,2.78
2023-07-30T05:54:31.826Z,2.95
2023-07-30T05:57:02.712Z,2.20
2023-07-30T05:59:33.538Z,3.00
2023-07-30T06:02:07.551Z,2.85
2023-07-30T06:04:38.548Z,1.85
2023-07-30T06:07:09.558Z,2.85
2023-07-30T06:09:43.097Z,3.03
2023-07-30T06:12:14.149Z,2.53
2023-07-30T06:14:45.185Z,2.67
2023-07-30T06:17:16.100Z,1.98
2023-07-30T06:19:47.684Z,3.00
2023-07-30T06:22:18.658Z,3.22
2023-07-30T06:24:52.231Z,2.83
2023-07-30T06:27:23.112Z,2.92
2023-07-30T06:29:54.156Z,3.28
2023-07-30T06:32:25.264Z,2.33
2023-07-30T06:34:56.187Z,3.40
2023-07-30T06:37:27.162Z,2.28
2023-07-30T06:40:00.732Z,2.47
2023-07-30T06:42:31.937Z,2.92
2023-07-30T06:45:02.931Z,2.50
2023-07-30T06:47:36.723Z,2.03
2023-07-30T06:50:09.931Z,3.05
2023-07-30T06:52:40.852Z,2.67
2023-07-30T06:55:14.779Z,2.83
2023-07-30T06:57:45.768Z,2.65
2023-07-30T07:00:23.183Z,2.88
2023-07-30T07:02:54.575Z,2.70
2023-07-30T07:05:26.062Z,2.65
2023-07-30T07:07:57.179Z,2.55
2023-07-30T07:10:30.880Z,2.60
2023-07-30T07:13:01.813Z,3.30
2023-07-30T07:15:32.813Z,3.13
2023-07-30T07:18:03.954Z,2.88
2023-07-30T07:20:35.033Z,2.78
2023-07-30T07:23:05.994Z,3.25
2023-07-30T07:25:39.670Z,2.72
2023-07-30T07:28:11.388Z,3.40
2023-07-30T07:30:42.700Z,3.15
2023-07-30T07:33:14.495Z,2.70
2023-07-30T07:35:45.499Z,2.55
2023-07-30T07:38:18.303Z,3.40
2023-07-30T07:40:52.389Z,3.05
2023-07-30T07:43:23.341Z,3.80
2023-07-30T07:45:54.226Z,3.63
2023-07-30T07:48:25.494Z,3.88
2023-07-30T07:50:56.430Z,3.22
2023-07-30T07:53:27.381Z,3.85
2023-07-30T07:56:01.000Z,3.58
2023-07-30T07:58:32.613Z,2.88
2023-07-30T08:01:03.713Z,3.03
2023-07-30T08:03:34.754Z,3.17
2023-07-30T08:06:05.766Z,3.90
2023-07-30T08:08:36.828Z,3.42
2023-07-30T08:11:13.163Z,4.22
2023-07-30T08:13:44.311Z,4.00
2023-07-30T08:16:15.396Z,3.92
2023-07-30T08:18:46.478Z,4.28
2023-07-30T08:21:18.984Z,3.55
2023-07-30T08:23:51.018Z,4.30
2023-07-30T08:26:24.554Z,4.13
2023-07-30T08:28:55.434Z,4.13
2023-07-30T08:31:27.315Z,4.47
2023-07-30T08:33:58.247Z,4.32
2023-07-30T08:36:29.081Z,4.22
2023-07-30T08:39:00.102Z,4.50
2023-07-30T08:41:34.152Z,3.85
2023-07-30T08:44:05.722Z,4.65
2023-07-30T08:46:36.778Z,3.58
2023-07-30T08:49:07.751Z,4.10
2023-07-30T08:51:42.957Z,4.00
2023-07-30T08:54:16.710Z,3.97
2023-07-30T08:56:50.814Z,4.32
2023-07-30T08:59:24.202Z,3.60
2023-07-30T09:01:56.625Z,3.75
2023-07-30T09:04:27.668Z,4.47
2023-07-30T09:06:58.450Z,4.65
2023-07-30T09:09:29.345Z,3.80
2023-07-30T09:12:03.060Z,4.28
2023-07-30T09:14:34.034Z,4.13
2023-07-30T09:17:05.057Z,3.72
2023-07-30T09:19:39.766Z,4.15
2023-07-30T09:22:11.130Z,3.92
2023-07-30T09:24:48.778Z,3.97
2023-07-30T09:27:27.626Z,3.90
2023-07-30T09:30:00.503Z,4.63
2023-07-30T09:32:32.637Z,3.97
2023-07-30T09:35:10.195Z,3.88
2023-07-30T09:37:42.462Z,4.30
2023-07-30T09:40:16.194Z,4.38
2023-07-30T09:42:52.429Z,3.58
2023-07-30T09:45:26.794Z,4.38
2023-07-30T09:48:00.532Z,4.15
2023-07-30T09:50:31.508Z,3.58
2023-07-30T09:53:04.727Z,4.43
2023-07-30T09:55:35.804Z,4.35
2023-07-30T09:58:12.666Z,4.03
2023-07-30T10:03:16.756Z,4.20
2023-07-30T10:05:49.006Z,3.97
2023-07-30T10:08:24.545Z,3.92
2023-07-30T10:10:58.461Z,3.97
2023-07-30T10:13:32.232Z,4.70
2023-07-30T10:16:03.462Z,4.45
2023-07-30T10:18:42.072Z,4.65
2023-07-30T10:21:13.558Z,4.43
2023-07-30T10:23:51.074Z,3.97
2023-07-30T10:26:32.173Z,4.75
2023-07-30T10:29:24.645Z,4.05
2023-07-30T10:31:58.333Z,4.47
2023-07-30T10:34:47.286Z,4.28
2023-07-30T10:37:23.024Z,4.18
2023-07-30T10:39:54.239Z,4.20
2023-07-30T10:42:25.124Z,4.60
2023-07-30T10:45:04.959Z,4.72
2023-07-30T10:47:39.376Z,4.45
2023-07-30T10:50:13.204Z,4.63
2023-07-30T10:52:44.042Z,3.95
2023-07-30T10:55:14.928Z,4.35
2023-07-30T10:57:48.134Z,4.32
2023-07-30T11:00:21.865Z,4.38
2023-07-30T11:02:57.814Z,4.28
2023-07-30T11:05:29.873Z,3.63
2023-07-30T11:08:00.866Z,3.97
2023-07-30T11:10:33.587Z,4.35
2023-07-30T11:13:05.607Z,4.13
2023-07-30T11:15:45.981Z,4.55
2023-07-30T11:18:17.220Z,4.88
2023-07-30T11:20:48.031Z,4.57
2023-07-30T11:23:26.240Z,4.28
2023-07-30T11:25:57.165Z,3.78
2023-07-30T11:28:37.602Z,4.72
2023-07-30T11:31:15.479Z,4.43
2023-07-30T11:33:48.303Z,4.15
2023-07-30T11:36:22.886Z,3.55
2023-07-30T11:38:55.153Z,3.92
2023-07-30T11:41:28.251Z,4.07
2023-07-30T11:43:59.374Z,3.90
2023-07-30T11:46:36.737Z,4.28
2023-07-30T11:49:20.398Z,3.72
2023-07-30T11:51:51.642Z,4.05
2023-07-30T11:54:26.889Z,4.07
2023-07-30T11:56:59.602Z,3.80
2023-07-30T11:59:30.713Z,4.35
2023-07-30T12:02:04.274Z,3.92
2023-07-30T12:04:55.637Z,3.65
2023-07-30T12:07:33.187Z,3.50
2023-07-30T12:10:12.673Z,3.40
2023-07-30T12:12:49.065Z,3.97
2023-07-30T12:15:20.191Z,3.75
2023-07-30T12:17:53.801Z,3.35
2023-07-30T12:20:24.839Z,3.80
2023-07-30T12:22:55.671Z,4.47
2023-07-30T12:25:26.574Z,2.97
2023-07-30T12:27:57.475Z,3.65
2023-07-30T12:30:29.143Z,3.78
2023-07-30T12:33:02.669Z,3.78
2023-07-30T12:35:33.960Z,3.88
2023-07-30T12:38:05.262Z,3.63
2023-07-30T12:40:36.524Z,3.33
2023-07-30T12:43:07.710Z,3.83
2023-07-30T12:45:39.305Z,3.70
2023-07-30T12:48:12.964Z,3.88
2023-07-30T12:50:43.884Z,3.80
2023-07-30T12:53:14.845Z,3.92
2023-07-30T12:55:45.836Z,3.40
2023-07-30T12:58:16.790Z,3.70
2023-07-30T13:00:47.626Z,3.78
2023-07-30T13:03:21.269Z,3.85
2023-07-30T13:05:52.265Z,3.70
2023-07-30T13:08:23.110Z,3.80
2023-07-30T13:10:53.961Z,3.72
2023-07-30T13:13:25.229Z,3.55
2023-07-30T13:15:59.341Z,4.03
2023-07-30T13:18:34.076Z,4.20
2023-07-30T13:21:04.975Z,3.72
2023-07-30T13:23:35.946Z,3.70
2023-07-30T13:26:06.798Z,3.42
2023-07-30T13:28:37.750Z,3.33
2023-07-30T13:31:09.291Z,3.97
2023-07-30T13:33:43.458Z,3.00
2023-07-30T13:36:14.409Z,3.40
2023-07-30T13:38:45.690Z,3.38
2023-07-30T13:41:16.645Z,3.60
2023-07-30T13:43:47.601Z,3.42
2023-07-30T13:46:18.572Z,3.72
2023-07-30T13:48:52.030Z,3.50
2023-07-30T13:51:23.167Z,3.10
2023-07-30T13:53:54.070Z,3.67
2023-07-30T13:56:24.909Z,3.47
2023-07-30T13:58:55.778Z,3.28
2023-07-30T14:01:26.800Z,3.78
2023-07-30T14:04:00.399Z,3.63
2023-07-30T14:06:32.302Z,2.80
2023-07-30T14:09:03.265Z,3.28
2023-07-30T14:11:34.110Z,3.80
2023-07-30T14:14:04.946Z,3.70
2023-07-30T14:16:36.010Z,3.50
2023-07-30T14:19:09.573Z,3.20
2023-07-30T14:21:41.662Z,3.40
2023-07-30T14:24:12.518Z,3.30
2023-07-30T14:26:45.816Z,3.15
2023-07-30T14:29:16.652Z,3.25
2023-07-30T14:31:47.479Z,4.10
2023-07-30T14:34:20.888Z,3.05
2023-07-30T14:36:51.829Z,3.17
2023-07-30T14:39:22.753Z,3.40
2023-07-30T14:41:53.764Z,3.22
2023-07-30T14:44:24.567Z,3.33
2023-07-30T14:46:55.424Z,3.20
2023-07-30T14:49:28.962Z,3.28
2023-07-30T14:51:59.966Z,3.00
2023-07-30T14:54:30.814Z,3.63
2023-07-30T14:57:01.813Z,3.13
2023-07-30T14:59:32.672Z,3.08
2023-07-30T15:02:03.565Z,3.28
2023-07-30T15:04:37.063Z,2.80
2023-07-30T15:07:10.209Z,3.42
2023-07-30T15:09:41.116Z,3.40
2023-07-30T15:12:12.180Z,3.70
2023-07-30T15:14:43.123Z,3.28
2023-07-30T15:17:14.015Z,3.75
2023-07-30T15:19:49.416Z,3.13
2023-07-30T15:22:20.238Z,3.03
2023-07-30T15:24:51.076Z,3.28
2023-07-30T15:27:22.028Z,3.20
2023-07-30T15:29:52.826Z,3.83
2023-07-30T15:32:23.773Z,3.67
2023-07-30T15:34:57.207Z,3.33
2023-07-30T15:37:28.174Z,2.95
2023-07-30T15:39:59.371Z,3.10
2023-07-30T15:42:30.250Z,3.47
2023-07-30T15:45:01.207Z,3.95
2023-07-30T15:47:32.170Z,3.67
2023-07-30T15:50:05.795Z,3.33
2023-07-30T15:52:36.758Z,3.38
2023-07-30T15:55:08.401Z,3.65
2023-07-30T15:57:39.343Z,3.67
2023-07-30T16:00:13.982Z,3.20
2023-07-30T16:02:46.986Z,3.58
2023-07-30T16:05:20.631Z,3.75
2023-07-30T16:07:52.192Z,3.40
2023-07-30T16:10:23.376Z,4.13
2023-07-30T16:12:54.323Z,3.60
2023-07-30T16:15:25.175Z,3.85
2023-07-30T16:17:56.129Z,4.05
2023-07-30T16:20:29.724Z,3.88
2023-07-30T16:23:00.657Z,3.42
2023-07-30T16:25:31.573Z,3.67
2023-07-30T16:28:02.435Z,3.58
2023-07-30T16:30:33.352Z,3.22
2023-07-30T16:33:04.395Z,3.33
2023-07-30T16:35:38.429Z,3.80
2023-07-30T16:38:09.368Z,3.50
2023-07-30T16:40:40.277Z,3.42
2023-07-30T16:43:15.028Z,4.03
2023-07-30T16:45:46.504Z,3.80
2023-07-30T16:48:17.352Z,2.95
2023-07-30T16:50:52.256Z,3.30
2023-07-30T16:53:23.185Z,3.28
2023-07-30T16:55:54.050Z,3.30
2023-07-30T16:58:24.949Z,3.42
2023-07-30T17:01:05.169Z,3.42
2023-07-30T17:03:36.928Z,3.08
2023-07-30T17:06:10.635Z,3.42
2023-07-30T17:08:41.496Z,3.55
2023-07-30T17:11:12.435Z,3.60
2023-07-30T17:13:45.584Z,3.42
2023-07-30T17:16:17.898Z,3.20
2023-07-30T17:18:51.976Z,3.53
2023-07-30T17:21:27.356Z,3.13
2023-07-30T17:23:58.520Z,3.88
2023-07-30T17:26:30.540Z,3.17
2023-07-30T17:29:01.799Z,3.50
2023-07-30T17:31:32.827Z,3.60
2023-07-30T17:34:03.900Z,3.22
2023-07-30T17:36:38.407Z,3.53
2023-07-30T17:39:10.047Z,3.35
2023-07-30T17:41:40.962Z,3.58
2023-07-30T17:44:11.909Z,3.38
2023-07-30T17:46:42.905Z,3.53
2023-07-30T17:49:13.821Z,4.15
2023-07-30T17:51:47.444Z,3.53
2023-07-30T17:54:18.264Z,4.38
2023-07-30T17:56:49.080Z,3.20
2023-07-30T17:59:21.417Z,3.60
2023-07-30T18:01:52.299Z,3.83
2023-07-30T18:04:23.690Z,3.85
2023-07-30T18:06:57.103Z,3.30
2023-07-30T18:09:27.923Z,3.67
2023-07-30T18:11:58.751Z,3.22
2023-07-30T18:14:30.450Z,3.65
2023-07-30T18:17:01.754Z,3.13
2023-07-30T18:19:32.601Z,3.45
2023-07-30T18:22:06.785Z,3.00
2023-07-30T18:24:39.761Z,2.97
2023-07-30T18:27:11.143Z,3.45
2023-07-30T18:29:42.410Z,3.30
2023-07-30T18:32:13.573Z,3.50
2023-07-30T18:34:44.561Z,2.85
2023-07-30T18:37:18.227Z,3.33
2023-07-30T18:39:49.173Z,3.60
2023-07-30T18:42:19.921Z,2.78
2023-07-30T18:44:50.845Z,2.90
2023-07-30T18:47:24.268Z,2.63
2023-07-30T18:49:56.558Z,3.28
2023-07-30T18:52:31.405Z,3.00
2023-07-30T18:55:02.257Z,3.03
2023-07-30T18:57:33.421Z,3.00
2023-07-30T19:00:04.970Z,3.03
2023-07-30T19:02:36.077Z,3.25
2023-07-30T19:05:07.388Z,3.30
2023-07-30T19:07:40.874Z,2.70
2023-07-30T19:10:12.490Z,2.60
2023-07-30T19:12:43.557Z,2.88
2023-07-30T19:15:16.131Z,2.78
2023-07-30T19:17:47.119Z,3.17
2023-07-30T19:20:18.421Z,2.80
2023-07-30T19:22:51.990Z,2.70
2023-07-30T19:25:22.851Z,3.00
2023-07-30T19:27:53.748Z,2.88
2023-07-30T19:30:26.088Z,2.88
2023-07-30T19:32:56.969Z,2.97
2023-07-30T19:35:37.427Z,2.40
2023-07-30T19:38:18.822Z,2.45
2023-07-30T19:40:54.038Z,2.65
2023-07-30T19:43:24.969Z,3.03
2023-07-30T19:45:56.375Z,2.63
2023-07-30T19:48:28.050Z,2.60
2023-07-30T19:50:59.472Z,2.72
2023-07-30T19:53:33.118Z,2.10
2023-07-30T19:56:03.986Z,2.20
2023-07-30T19:58:35.986Z,2.30
2023-07-30T20:01:07.458Z,2.45
2023-07-30T20:03:38.325Z,1.80
2023-07-30T20:06:14.131Z,2.65
2023-07-30T20:08:48.924Z,2.08
2023-07-30T20:11:19.865Z,2.10
2023-07-30T20:13:50.593Z,2.25
2023-07-30T20:16:21.415Z,2.55
2023-07-30T20:18:52.251Z,2.15
2023-07-30T20:21:24.278Z,2.00
2023-07-30T20:23:57.813Z,2.65
2023-07-30T20:26:28.632Z,2.47
2023-07-30T20:29:01.977Z,2.63
2023-07-30T20:31:36.395Z,2.20
2023-07-30T20:34:07.292Z,2.35
2023-07-30T20:36:39.196Z,2.80
2023-07-30T20:39:13.355Z,2.25
2023-07-30T20:41:44.409Z,2.33
2023-07-30T20:44:15.339Z,2.40
2023-07-30T20:46:46.268Z,2.60
2023-07-30T20:49:19.124Z,2.13
2023-07-30T20:51:52.245Z,2.60
2023-07-30T20:54:25.723Z,2.65
2023-07-30T20:56:56.744Z,2.63
2023-07-30T20:59:28.493Z,3.30
2023-07-30T21:01:59.582Z,2.17
2023-07-30T21:04:30.758Z,2.80
2023-07-30T21:07:02.580Z,3.40
2023-07-30T21:09:36.152Z,2.60
2023-07-30T21:12:07.734Z,2.65
2023-07-30T21:14:38.671Z,3.17
2023-07-30T21:17:10.232Z,2.95
2023-07-30T21:19:41.008Z,2.80
2023-07-30T21:22:11.991Z,3.50
2023-07-30T21:24:45.689Z,2.60
2023-07-30T21:27:18.775Z,4.07
2023-07-30T21:29:52.874Z,3.25
2023-07-30T21:32:23.909Z,3.35
2023-07-30T21:34:54.883Z,3.20
2023-07-30T21:37:25.725Z,3.75
2023-07-30T21:40:04.790Z,4.07
2023-07-30T21:42:36.125Z,3.92
2023-07-30T21:45:07.346Z,3.85
2023-07-30T21:47:38.362Z,3.78
2023-07-30T21:50:10.373Z,4.72
2023-07-30T21:52:42.662Z,3.78
2023-07-30T21:55:16.267Z,3.75
2023-07-30T21:57:47.895Z,4.32
2023-07-30T22:00:19.369Z,4.57
2023-07-30T22:02:50.384Z,3.00
2023-07-30T22:05:21.462Z,4.38
2023-07-30T22:07:52.290Z,4.00
2023-07-30T22:10:25.787Z,3.70
2023-07-30T22:12:57.222Z,4.93
2023-07-30T22:15:28.334Z,3.85
2023-07-30T22:17:59.295Z,4.28
2023-07-30T22:20:30.278Z,4.90
2023-07-30T22:23:01.286Z,4.55
2023-07-30T22:25:34.843Z,5.20
2023-07-30T22:28:10.121Z,4.47
2023-07-30T22:30:43.983Z,4.22
2023-07-30T22:33:14.980Z,4.68
2023-07-30T22:35:46.039Z,3.88
2023-07-30T22:38:17.034Z,4.07
2023-07-30T22:40:50.516Z,4.35
2023-07-30T22:43:21.421Z,3.90
2023-07-30T22:45:52.435Z,3.80
2023-07-30T22:48:23.337Z,5.28
2023-07-30T22:50:54.164Z,4.05
2023-07-30T22:53:25.114Z,4.57
2023-07-30T22:55:58.626Z,5.32
2023-07-30T22:58:29.524Z,4.78
2023-07-30T23:01:00.447Z,5.10
2023-07-30T23:03:31.518Z,5.10
2023-07-30T23:06:02.655Z,5.60
2023-07-30T23:08:33.627Z,6.05
2023-07-30T23:11:07.212Z,5.78
2023-07-30T23:13:38.072Z,5.25
2023-07-30T23:16:09.114Z,5.50
2023-07-30T23:18:41.383Z,4.68
2023-07-30T23:21:12.294Z,5.07
2023-07-30T23:23:44.764Z,4.10
2023-07-30T23:26:18.432Z,4.85
2023-07-30T23:28:49.368Z,4.95
2023-07-30T23:31:20.352Z,5.30
2023-07-30T23:33:51.385Z,5.28
2023-07-30T23:36:22.461Z,5.65
2023-07-30T23:38:53.314Z,6.13
2023-07-30T23:41:26.762Z,5.32
2023-07-30T23:43:57.629Z,5.80
2023-07-30T23:46:28.481Z,4.60
2023-07-30T23:48:59.373Z,4.88
2023-07-30T23:51:31.038Z,5.18
2023-07-30T23:54:02.777Z,5.38
2023-07-30T23:56:36.493Z,6.05
2023-07-30T23:59:07.555Z,5.85
